Kennedy Shores, Texas
Current Conditions -  °F | °C
As of 3:53 PM on Sunday 25 Jan 2015 (Local Time) from KBRO Reporting Station
Clear Clear  
Wind Chill: 69°   Ceiling: Unl
Heat Index: 69°   Visibility: 10mi
Dew Point: 49°   Wind: 8mph
Humidity: 49%   Direction: 290°WNW
Pressure: 30.1"   Gusts: NA
Location:  26.0002°N, 97.5729°W
Report Text: KBRO 252153Z 29007KT 10SM CLR 21/09 A3010 RMK AO2 SLP192 T02060094
Loading
Personal Weather Stations






























Interactive Weather Map New forecast layout! Learn more

10-Day Weather Forecast

Advertisements
Track Severe Weather on mobile